createdAt,value
2023-03-06T00:00:06.007Z,76841.56
2023-03-06T00:01:49.104Z,76853.41
2023-03-06T00:03:22.986Z,76849.47
2023-03-06T00:04:56.525Z,76861.34
2023-03-06T00:06:29.658Z,76857.38
2023-03-06T00:08:02.813Z,76869.25
2023-03-06T00:09:35.644Z,76871.22
2023-03-06T00:11:08.705Z,76879.13
2023-03-06T00:12:41.603Z,76889.00
2023-03-06T00:14:14.794Z,76892.97
2023-03-06T00:15:49.001Z,76904.84
2023-03-06T00:17:22.194Z,76910.75
2023-03-06T00:18:55.286Z,76912.75
2023-03-06T00:20:28.313Z,76928.56
2023-03-06T00:22:01.204Z,76936.47
2023-03-06T00:23:34.222Z,76934.50
2023-03-06T00:25:09.278Z,76938.44
2023-03-06T00:26:42.234Z,76946.38
2023-03-06T00:28:16.090Z,76946.38
2023-03-06T00:29:50.021Z,76946.38
2023-03-06T00:31:23.113Z,76960.22
2023-03-06T00:32:56.132Z,76950.31
2023-03-06T00:34:29.490Z,76946.38
2023-03-06T00:36:05.679Z,77001.72
2023-03-06T00:37:39.814Z,76940.44
2023-03-06T00:39:13.025Z,76946.38
2023-03-06T00:40:45.882Z,76942.41
2023-03-06T00:42:19.828Z,76944.38
2023-03-06T00:43:52.722Z,76944.38
2023-03-06T00:45:25.939Z,76948.34
2023-03-06T00:46:58.866Z,76946.38
2023-03-06T00:48:33.321Z,76958.22
2023-03-06T00:50:06.672Z,76956.25
2023-03-06T00:51:39.723Z,76962.19
2023-03-06T00:53:13.677Z,76964.16
2023-03-06T00:54:46.876Z,76962.19
2023-03-06T00:56:20.156Z,77023.50
2023-03-06T00:57:54.008Z,76978.00
2023-03-06T00:59:28.170Z,76981.97
2023-03-06T01:01:01.191Z,76991.84
2023-03-06T01:02:34.146Z,77007.66
2023-03-06T01:04:07.254Z,77011.63
2023-03-06T01:05:40.406Z,77011.63
2023-03-06T01:07:13.448Z,77009.66
2023-03-06T01:08:46.397Z,77023.50
2023-03-06T01:10:19.477Z,77023.50
2023-03-06T01:11:53.781Z,77023.50
2023-03-06T01:13:26.848Z,77035.34
2023-03-06T01:14:59.890Z,77035.34
2023-03-06T01:16:33.519Z,77037.34
2023-03-06T01:18:06.461Z,77035.34
2023-03-06T01:19:42.359Z,77047.22
2023-03-06T01:21:16.037Z,77053.16
2023-03-06T01:22:49.120Z,77055.13
2023-03-06T01:24:24.204Z,77049.19
2023-03-06T01:25:57.436Z,77057.09
2023-03-06T01:27:30.615Z,77059.09
2023-03-06T01:29:03.693Z,77067.00
2023-03-06T01:30:36.512Z,77067.00
2023-03-06T01:32:09.593Z,77078.88
2023-03-06T01:33:42.473Z,77074.91
2023-03-06T01:35:15.666Z,77074.91
2023-03-06T01:36:48.822Z,77080.84
2023-03-06T01:38:21.972Z,77090.72
2023-03-06T01:39:56.780Z,77094.69
2023-03-06T01:41:30.520Z,77098.63
2023-03-06T01:43:28.749Z,77146.09
2023-03-06T01:45:13.865Z,77102.59
2023-03-06T01:46:47.275Z,77122.38
2023-03-06T01:48:23.755Z,77108.53
2023-03-06T01:49:59.988Z,77122.38
2023-03-06T01:51:39.027Z,77142.16
2023-03-06T01:53:13.606Z,77150.06
2023-03-06T01:55:02.169Z,77142.16
2023-03-06T01:56:36.480Z,77154.00
2023-03-06T01:58:17.166Z,77150.06
2023-03-06T01:59:56.866Z,77150.06
2023-03-06T02:01:32.593Z,77157.97
2023-03-06T02:03:15.214Z,77146.09
2023-03-06T02:04:49.110Z,77159.94
2023-03-06T02:06:22.199Z,77157.97
2023-03-06T02:07:55.776Z,77159.94
2023-03-06T02:09:31.319Z,77165.88
2023-03-06T02:11:17.108Z,77207.41
2023-03-06T02:13:10.153Z,77175.78
2023-03-06T02:14:43.812Z,77181.69
2023-03-06T02:16:18.523Z,77193.56
2023-03-06T02:17:52.196Z,77197.53
2023-03-06T02:19:50.895Z,77197.53
2023-03-06T02:21:29.129Z,77201.47
2023-03-06T02:23:11.468Z,77248.94
2023-03-06T02:25:08.370Z,77197.53
2023-03-06T02:26:44.545Z,77209.38
2023-03-06T02:28:20.507Z,77248.94
2023-03-06T02:29:53.533Z,77223.22
2023-03-06T02:31:30.938Z,77215.31
2023-03-06T02:33:05.922Z,77223.22
2023-03-06T02:34:50.229Z,77219.28
2023-03-06T02:36:23.543Z,77229.16
2023-03-06T02:37:59.683Z,77229.16
2023-03-06T02:39:34.827Z,77235.09
2023-03-06T02:41:09.349Z,77245.00
2023-03-06T02:42:56.522Z,77248.94
2023-03-06T02:44:30.671Z,77260.81
2023-03-06T02:46:04.948Z,77252.91
2023-03-06T02:47:38.328Z,77355.75
2023-03-06T02:49:11.164Z,77268.72
2023-03-06T02:50:45.433Z,77272.69
2023-03-06T02:52:18.674Z,77266.75
2023-03-06T02:53:51.601Z,77272.69
2023-03-06T02:55:24.824Z,77278.59
2023-03-06T02:57:00.167Z,77284.53
2023-03-06T02:58:33.223Z,77288.50
2023-03-06T03:00:07.374Z,77288.50
2023-03-06T03:01:40.563Z,77302.34
2023-03-06T03:03:14.087Z,77306.28
2023-03-06T03:04:47.233Z,77312.22
2023-03-06T03:06:20.454Z,77318.16
2023-03-06T03:07:53.436Z,77387.38
2023-03-06T03:09:27.060Z,77320.13
2023-03-06T03:11:00.922Z,77306.28
2023-03-06T03:12:38.299Z,77268.72
2023-03-06T03:14:11.227Z,77375.53
2023-03-06T03:15:44.621Z,77211.38
2023-03-06T03:17:18.345Z,77195.53
2023-03-06T03:18:52.708Z,77201.47
2023-03-06T03:20:28.350Z,77181.69
2023-03-06T03:22:02.081Z,77072.94
2023-03-06T03:23:35.047Z,77007.66
2023-03-06T03:25:08.433Z,77094.69
2023-03-06T03:26:41.392Z,77138.19
2023-03-06T03:28:19.825Z,77163.91
2023-03-06T03:29:52.807Z,77181.69
2023-03-06T03:31:25.731Z,77177.75
2023-03-06T03:32:58.659Z,77173.78
2023-03-06T03:34:32.871Z,77161.94
2023-03-06T03:36:07.653Z,77177.75
2023-03-06T03:37:44.881Z,77157.97
2023-03-06T03:39:18.642Z,77163.91
2023-03-06T03:40:51.709Z,77217.31
2023-03-06T03:42:24.953Z,77104.56
2023-03-06T03:43:57.850Z,77090.72
2023-03-06T03:45:30.820Z,77061.06
2023-03-06T03:47:03.781Z,77043.25
2023-03-06T03:48:37.320Z,77043.25
2023-03-06T03:50:12.270Z,77027.44
2023-03-06T03:51:45.955Z,77031.41
2023-03-06T03:53:19.170Z,77067.00
2023-03-06T03:54:52.526Z,76991.84
2023-03-06T03:56:25.969Z,76962.19
2023-03-06T03:58:05.964Z,76946.38
2023-03-06T03:59:40.116Z,76958.22
2023-03-06T04:01:20.149Z,76962.19
2023-03-06T04:02:53.202Z,76938.44
2023-03-06T04:04:33.176Z,76944.38
2023-03-06T04:06:06.583Z,76948.34
2023-03-06T04:07:39.860Z,76960.22
2023-03-06T04:09:12.806Z,76970.09
2023-03-06T04:10:46.026Z,76922.63
2023-03-06T04:12:21.295Z,76754.53
2023-03-06T04:13:54.460Z,76782.22
2023-03-06T04:15:27.383Z,76705.09
2023-03-06T04:17:00.262Z,76718.94
2023-03-06T04:18:33.477Z,76580.53
2023-03-06T04:20:10.881Z,76463.88
2023-03-06T04:21:44.284Z,76291.84
2023-03-06T04:23:17.999Z,76396.63
2023-03-06T04:24:51.126Z,76505.38
2023-03-06T04:26:25.968Z,76562.72
2023-03-06T04:27:59.119Z,76695.22
2023-03-06T04:29:32.120Z,76726.84
2023-03-06T04:31:05.426Z,76695.22
2023-03-06T04:32:38.475Z,76718.94
2023-03-06T04:34:11.526Z,76715.00
2023-03-06T04:35:44.901Z,76788.16
2023-03-06T04:37:25.892Z,76750.59
2023-03-06T04:39:00.978Z,76715.00
2023-03-06T04:40:36.669Z,76726.84
2023-03-06T04:42:09.746Z,76722.91
2023-03-06T04:43:42.826Z,76707.09
2023-03-06T04:45:16.811Z,76691.25
2023-03-06T04:46:49.765Z,76689.28
2023-03-06T04:48:22.692Z,76673.47
2023-03-06T04:49:55.922Z,76663.59
2023-03-06T04:51:29.009Z,76705.09
2023-03-06T04:53:03.796Z,76699.19
2023-03-06T04:54:36.764Z,76718.94
2023-03-06T04:56:09.948Z,76631.94
2023-03-06T04:57:44.781Z,76268.13
2023-03-06T04:59:17.668Z,76094.13
2023-03-06T05:00:50.551Z,75935.94
2023-03-06T05:02:25.014Z,75894.44
2023-03-06T05:03:58.160Z,75852.91
2023-03-06T05:05:31.080Z,75781.75
2023-03-06T05:07:04.069Z,75639.41
2023-03-06T05:08:37.249Z,75554.41
2023-03-06T05:10:16.598Z,75566.25
2023-03-06T05:11:49.524Z,75599.88
2023-03-06T05:13:22.238Z,75532.66
2023-03-06T05:14:55.346Z,75463.47
2023-03-06T05:16:28.416Z,75504.97
2023-03-06T05:18:01.245Z,75524.75
2023-03-06T05:19:33.934Z,75540.56
2023-03-06T05:21:07.548Z,75637.44
2023-03-06T05:22:41.008Z,75763.94
2023-03-06T05:24:13.879Z,75825.25
2023-03-06T05:25:46.599Z,75987.34
2023-03-06T05:27:19.608Z,76011.09
2023-03-06T05:28:52.682Z,75904.31
2023-03-06T05:30:26.250Z,75706.63
2023-03-06T05:31:59.346Z,75595.91
2023-03-06T05:33:33.921Z,75483.22
2023-03-06T05:35:07.489Z,75447.66
2023-03-06T05:36:40.425Z,75453.56
2023-03-06T05:38:14.433Z,75390.31
2023-03-06T05:39:47.954Z,75449.63
2023-03-06T05:41:21.161Z,75352.75
2023-03-06T05:42:54.178Z,75331.00
2023-03-06T05:44:30.980Z,75311.25
2023-03-06T05:46:05.805Z,75378.47
2023-03-06T05:47:39.081Z,75607.78
2023-03-06T05:49:12.008Z,75690.81
2023-03-06T05:50:44.772Z,75809.41
2023-03-06T05:52:18.148Z,75933.97
2023-03-06T05:53:51.420Z,76058.53
2023-03-06T05:55:24.646Z,76125.75
2023-03-06T05:56:57.710Z,76123.78
2023-03-06T05:58:32.754Z,76145.53
2023-03-06T06:00:08.021Z,76145.53
2023-03-06T06:01:45.666Z,76171.22
2023-03-06T06:03:19.631Z,76208.78
2023-03-06T06:04:52.594Z,76222.63
2023-03-06T06:06:25.698Z,76226.59
2023-03-06T06:07:58.631Z,76216.72
2023-03-06T06:09:31.219Z,76206.81
2023-03-06T06:11:09.173Z,76228.56
2023-03-06T06:12:45.844Z,76185.06
2023-03-06T06:14:18.897Z,76244.38
2023-03-06T06:15:52.210Z,76303.69
2023-03-06T06:17:25.295Z,76370.94
2023-03-06T06:18:58.015Z,76366.97
2023-03-06T06:20:31.000Z,76351.16
2023-03-06T06:22:04.138Z,76372.91
2023-03-06T06:23:37.247Z,76382.78
2023-03-06T06:25:10.941Z,76370.94
2023-03-06T06:26:44.036Z,76331.38
2023-03-06T06:28:17.105Z,76343.25
2023-03-06T06:29:53.332Z,76319.53
2023-03-06T06:31:26.358Z,76359.06
2023-03-06T06:32:59.967Z,76376.88
2023-03-06T06:34:33.192Z,76420.38
2023-03-06T06:36:06.354Z,76394.66
2023-03-06T06:37:40.090Z,76418.38
2023-03-06T06:39:16.007Z,76345.22
2023-03-06T06:41:11.648Z,76339.28
2023-03-06T06:42:42.291Z,76309.63
2023-03-06T06:44:16.714Z,76258.22
2023-03-06T06:45:50.386Z,76250.31
2023-03-06T06:47:25.174Z,76293.81
2023-03-06T06:49:00.507Z,76331.38
2023-03-06T06:50:33.534Z,76301.72
2023-03-06T06:52:06.629Z,76329.41
2023-03-06T06:53:39.417Z,76331.38
2023-03-06T06:55:15.264Z,76343.25
2023-03-06T06:56:48.403Z,76331.38
2023-03-06T06:58:21.636Z,76410.47
2023-03-06T06:59:54.527Z,76335.34
2023-03-06T07:01:28.165Z,76329.41
2023-03-06T07:03:00.934Z,76339.28
2023-03-06T07:04:33.582Z,76343.25
2023-03-06T07:06:07.281Z,76355.13
2023-03-06T07:07:40.421Z,76386.75
2023-03-06T07:09:14.126Z,76366.97
2023-03-06T07:10:47.013Z,76402.56
2023-03-06T07:12:20.131Z,76410.47
2023-03-06T07:13:53.528Z,76361.03
2023-03-06T07:15:27.375Z,76353.13
2023-03-06T07:17:00.222Z,76323.47
2023-03-06T07:18:32.862Z,76315.56
2023-03-06T07:20:07.383Z,76287.88
2023-03-06T07:21:40.423Z,76283.94
2023-03-06T07:23:14.721Z,76252.28
2023-03-06T07:24:47.557Z,76291.84
2023-03-06T07:26:20.917Z,76279.97
2023-03-06T07:27:55.270Z,76264.16
2023-03-06T07:29:28.420Z,76266.13
2023-03-06T07:31:01.817Z,76333.38
2023-03-06T07:32:35.365Z,76335.34
2023-03-06T07:34:08.188Z,76378.84
2023-03-06T07:35:41.898Z,76343.25
2023-03-06T07:37:15.219Z,76355.13
2023-03-06T07:38:48.625Z,76347.19
2023-03-06T07:40:22.240Z,76311.63
2023-03-06T07:41:59.283Z,76325.44
2023-03-06T07:43:32.650Z,76279.97
2023-03-06T07:45:09.375Z,76341.28
2023-03-06T07:46:42.490Z,76355.13
2023-03-06T07:48:16.140Z,76414.44
2023-03-06T07:49:49.512Z,76461.88
2023-03-06T07:51:23.533Z,76386.75
2023-03-06T07:52:56.573Z,76390.69
2023-03-06T07:54:30.992Z,76301.72
2023-03-06T07:56:09.448Z,76333.38
2023-03-06T07:57:42.700Z,76307.66
2023-03-06T07:59:16.026Z,76303.69
2023-03-06T08:00:49.985Z,76295.78
2023-03-06T08:02:22.953Z,76256.25
2023-03-06T08:03:56.539Z,76244.38
2023-03-06T08:05:29.716Z,76212.75
2023-03-06T08:07:03.731Z,76177.16
2023-03-06T08:08:39.542Z,76185.06
2023-03-06T08:10:17.183Z,76226.59
2023-03-06T08:11:50.285Z,76256.25
2023-03-06T08:13:23.634Z,76226.59
2023-03-06T08:14:56.614Z,76200.88
2023-03-06T08:16:30.947Z,76153.44
2023-03-06T08:18:03.950Z,76109.94
2023-03-06T08:19:36.806Z,76074.34
2023-03-06T08:21:16.261Z,75991.31
2023-03-06T08:22:50.077Z,75932.00
2023-03-06T08:24:23.873Z,75975.50
2023-03-06T08:26:00.828Z,76017.00
2023-03-06T08:27:36.470Z,75922.13
2023-03-06T08:29:11.367Z,75981.44
2023-03-06T08:30:44.184Z,76030.84
2023-03-06T08:32:16.873Z,75979.44
2023-03-06T08:33:50.234Z,75993.28
2023-03-06T08:35:23.712Z,76011.09
2023-03-06T08:36:56.538Z,76005.16
2023-03-06T08:38:29.336Z,76007.13
2023-03-06T08:40:04.865Z,75935.94
2023-03-06T08:41:38.880Z,75902.34
2023-03-06T08:43:14.114Z,75785.69
2023-03-06T08:44:47.573Z,75773.84
2023-03-06T08:46:24.438Z,75799.53
2023-03-06T08:47:57.731Z,75760.00
2023-03-06T08:49:30.889Z,75900.38
2023-03-06T08:51:04.312Z,75841.06
2023-03-06T08:52:37.369Z,75819.31
2023-03-06T08:54:12.557Z,75813.38
2023-03-06T08:55:46.471Z,75821.28
2023-03-06T08:57:20.182Z,75904.31
2023-03-06T08:58:54.948Z,75904.31
2023-03-06T09:00:28.336Z,75902.34
2023-03-06T09:02:02.229Z,75852.91
2023-03-06T09:03:35.204Z,75908.28
2023-03-06T09:05:09.409Z,75908.28
2023-03-06T09:06:43.867Z,75910.25
2023-03-06T09:08:17.656Z,75943.88
2023-03-06T09:09:50.607Z,75884.56
2023-03-06T09:11:26.237Z,75876.63
2023-03-06T09:12:59.695Z,75846.97
2023-03-06T09:14:33.354Z,75856.88
2023-03-06T09:16:07.060Z,75829.19
2023-03-06T09:17:41.171Z,75850.94
2023-03-06T09:19:14.921Z,75823.25
2023-03-06T09:20:47.991Z,75825.25
2023-03-06T09:22:21.232Z,75943.88
2023-03-06T09:23:55.106Z,75937.94
2023-03-06T09:25:28.618Z,75955.72
2023-03-06T09:27:02.417Z,75983.41
2023-03-06T09:28:40.593Z,75957.69
2023-03-06T09:30:14.667Z,75951.78
2023-03-06T09:31:48.053Z,75831.16
2023-03-06T09:33:21.861Z,75888.50
2023-03-06T09:34:55.180Z,75991.31
2023-03-06T09:36:29.474Z,76020.97
2023-03-06T09:38:02.532Z,76042.72
2023-03-06T09:39:36.024Z,76070.41
2023-03-06T09:41:16.024Z,76034.81
2023-03-06T09:42:49.238Z,76005.16
2023-03-06T09:44:31.790Z,75969.56
2023-03-06T09:46:17.137Z,75922.13
2023-03-06T09:48:08.110Z,75959.69
2023-03-06T09:50:05.340Z,75977.47
2023-03-06T09:52:05.199Z,76042.72
2023-03-06T09:54:04.430Z,76070.41
2023-03-06T09:55:39.303Z,76113.91
2023-03-06T09:57:28.429Z,76141.56
2023-03-06T09:59:15.976Z,76204.84
2023-03-06T10:01:06.453Z,76240.44
2023-03-06T10:02:48.273Z,76276.03
2023-03-06T10:04:36.335Z,76303.69
2023-03-06T10:06:09.783Z,76329.41
2023-03-06T10:07:54.872Z,76311.63
2023-03-06T10:09:50.234Z,76319.53
2023-03-06T10:11:38.852Z,76335.34
2023-03-06T10:13:26.136Z,76317.53
2023-03-06T10:15:47.203Z,76331.38
2023-03-06T10:17:24.331Z,76327.44
2023-03-06T10:19:03.862Z,76264.16
2023-03-06T10:21:35.697Z,76260.22
2023-03-06T10:23:24.620Z,76272.06
2023-03-06T10:25:15.588Z,76226.59
2023-03-06T10:27:23.809Z,76198.91
2023-03-06T10:29:09.691Z,76175.19
2023-03-06T10:31:00.588Z,76125.75
2023-03-06T10:32:55.816Z,76082.25
2023-03-06T10:34:38.485Z,76105.97
2023-03-06T10:36:17.781Z,76125.75
2023-03-06T10:37:51.186Z,76131.69
2023-03-06T10:39:24.253Z,76141.56
2023-03-06T10:41:08.689Z,76169.25
2023-03-06T10:42:41.763Z,76167.28
2023-03-06T10:44:14.626Z,76133.66
2023-03-06T10:45:49.747Z,76074.34
2023-03-06T10:47:38.054Z,76090.16
2023-03-06T10:49:34.775Z,76070.41
2023-03-06T10:51:20.418Z,76090.16
2023-03-06T10:53:06.108Z,76074.34
2023-03-06T10:54:44.754Z,76111.91
2023-03-06T10:56:42.362Z,76105.97
2023-03-06T10:58:23.423Z,76141.56
2023-03-06T11:00:08.460Z,76256.25
2023-03-06T11:02:03.013Z,76165.31
2023-03-06T11:03:37.973Z,76135.63
2023-03-06T11:05:21.548Z,76105.97
2023-03-06T11:07:12.937Z,76080.28
2023-03-06T11:08:46.124Z,76113.91
2023-03-06T11:10:20.443Z,76127.72
2023-03-06T11:12:13.581Z,76107.97
2023-03-06T11:13:58.051Z,76141.56
2023-03-06T11:15:32.294Z,76129.72
2023-03-06T11:17:05.328Z,76153.44
2023-03-06T11:18:41.601Z,76111.91
2023-03-06T11:20:48.459Z,76123.78
2023-03-06T11:22:23.956Z,76133.66
2023-03-06T11:24:04.798Z,76179.13
2023-03-06T11:26:03.513Z,76163.31
2023-03-06T11:27:43.264Z,76173.22
2023-03-06T11:29:29.405Z,76149.47
2023-03-06T11:31:24.654Z,76194.97
2023-03-06T11:33:07.207Z,76161.34
2023-03-06T11:35:05.446Z,76145.53
2023-03-06T11:37:07.104Z,76088.19
2023-03-06T11:38:52.052Z,76125.75
2023-03-06T11:40:42.228Z,76139.59
2023-03-06T11:42:29.215Z,76145.53
2023-03-06T11:44:32.670Z,76157.38
2023-03-06T11:46:16.971Z,76185.06
2023-03-06T11:48:02.461Z,76216.72
2023-03-06T11:49:57.891Z,76244.38
2023-03-06T11:51:38.471Z,76272.06
2023-03-06T11:53:17.028Z,76256.25
2023-03-06T11:54:55.806Z,76359.06
2023-03-06T11:56:54.670Z,76232.53
2023-03-06T11:58:41.250Z,76248.34
2023-03-06T12:00:17.240Z,76260.22
2023-03-06T12:02:11.841Z,76238.47
2023-03-06T12:03:55.813Z,76262.19
2023-03-06T12:05:40.586Z,76287.88
2023-03-06T12:07:26.150Z,76305.69
2023-03-06T12:09:14.838Z,76313.59
2023-03-06T12:10:58.007Z,76390.69
2023-03-06T12:15:15.750Z,76370.94
2023-03-06T12:16:54.017Z,76386.75
2023-03-06T12:18:51.410Z,76378.84
2023-03-06T12:20:33.963Z,76442.13
2023-03-06T12:22:31.275Z,76463.88
2023-03-06T12:24:07.149Z,76497.47
2023-03-06T12:25:45.576Z,76487.59
2023-03-06T12:27:33.537Z,76499.47
2023-03-06T12:29:25.277Z,76535.06
2023-03-06T12:31:13.225Z,76537.03
2023-03-06T12:33:30.886Z,76533.06
2023-03-06T12:35:42.376Z,76548.88
2023-03-06T12:37:40.144Z,76540.97
2023-03-06T12:39:42.859Z,76556.81
2023-03-06T12:41:34.574Z,76552.84
2023-03-06T12:43:30.862Z,76533.06
2023-03-06T12:45:22.166Z,76539.00
2023-03-06T12:47:01.024Z,76554.81
2023-03-06T12:48:36.908Z,76564.72
2023-03-06T12:50:40.198Z,76572.63
2023-03-06T12:52:30.182Z,76590.41
2023-03-06T12:54:04.664Z,76592.41
2023-03-06T12:55:46.260Z,76580.53
2023-03-06T12:57:19.139Z,76600.31
2023-03-06T12:58:55.439Z,76598.31
2023-03-06T13:00:34.790Z,76620.06
2023-03-06T13:02:44.941Z,76631.94
2023-03-06T13:05:00.928Z,76614.16
2023-03-06T13:06:41.866Z,76647.75
2023-03-06T13:08:55.391Z,76651.72
2023-03-06T13:10:34.502Z,76661.59
2023-03-06T13:12:25.531Z,76655.66
2023-03-06T13:13:58.541Z,76659.63
2023-03-06T13:15:39.005Z,76663.59
2023-03-06T13:17:21.024Z,76661.59
2023-03-06T13:19:12.565Z,76641.81
2023-03-06T13:20:46.254Z,76651.72
2023-03-06T13:22:29.671Z,76635.91
2023-03-06T13:24:06.470Z,76631.94
2023-03-06T13:25:50.840Z,76631.94
2023-03-06T13:27:47.597Z,76655.66
2023-03-06T13:29:39.136Z,76659.63
2023-03-06T13:31:26.336Z,76703.13
2023-03-06T13:33:00.383Z,76709.06
2023-03-06T13:34:36.930Z,76726.84
2023-03-06T13:36:22.443Z,76722.91
2023-03-06T13:37:55.888Z,76742.69
2023-03-06T13:39:54.502Z,76762.44
2023-03-06T13:41:44.496Z,76823.75
2023-03-06T13:43:22.403Z,76776.28
2023-03-06T13:44:58.252Z,76786.19
2023-03-06T13:46:35.704Z,76904.84
2023-03-06T13:48:43.204Z,76800.03
2023-03-06T13:50:37.342Z,76813.88
2023-03-06T13:52:23.341Z,76833.66
2023-03-06T13:54:24.005Z,76837.59
2023-03-06T13:56:27.825Z,76861.34
2023-03-06T13:58:12.700Z,76896.94
2023-03-06T14:00:09.286Z,76902.84
2023-03-06T14:02:19.755Z,76928.56
2023-03-06T14:04:14.673Z,76936.47
2023-03-06T14:05:50.395Z,76956.25
2023-03-06T14:07:36.014Z,76960.22
2023-03-06T14:09:25.324Z,76960.22
2023-03-06T14:11:23.500Z,77039.31
2023-03-06T14:13:02.087Z,76997.78
2023-03-06T14:14:42.254Z,76991.84
2023-03-06T14:16:21.666Z,76999.75
2023-03-06T14:18:13.033Z,76999.75
2023-03-06T14:19:46.284Z,77017.56
2023-03-06T14:21:45.952Z,77015.56
2023-03-06T14:23:24.186Z,77035.34
2023-03-06T14:25:20.883Z,77035.34
2023-03-06T14:26:53.803Z,77047.22
2023-03-06T14:28:31.783Z,77094.69
2023-03-06T14:30:28.899Z,77068.97
2023-03-06T14:32:02.875Z,77088.75
2023-03-06T14:33:57.054Z,77086.78
2023-03-06T14:35:34.730Z,77102.59
2023-03-06T14:37:20.939Z,77130.28
2023-03-06T14:38:57.381Z,77154.00
2023-03-06T14:40:45.601Z,77169.84
2023-03-06T14:42:25.330Z,77157.97
2023-03-06T14:44:23.801Z,77185.66
2023-03-06T14:46:02.636Z,77197.53
2023-03-06T14:47:37.442Z,77189.59
2023-03-06T14:49:11.228Z,77185.66
2023-03-06T14:50:53.941Z,77189.59
2023-03-06T14:52:27.093Z,77183.69
2023-03-06T14:54:02.695Z,77167.84
2023-03-06T14:55:36.747Z,77165.88
2023-03-06T14:57:15.534Z,77189.59
2023-03-06T14:59:05.453Z,77140.16
2023-03-06T15:00:43.668Z,77229.16
2023-03-06T15:02:22.043Z,77140.16
2023-03-06T15:03:59.853Z,77144.13
2023-03-06T15:05:33.835Z,77229.16
2023-03-06T15:07:11.544Z,77157.97
2023-03-06T15:08:48.163Z,77175.78
2023-03-06T15:10:27.500Z,77193.56
2023-03-06T15:12:03.487Z,77207.41
2023-03-06T15:13:36.506Z,77223.22
2023-03-06T15:15:10.699Z,77225.22
2023-03-06T15:16:43.787Z,77219.28
2023-03-06T15:18:35.861Z,77217.31
2023-03-06T15:20:51.722Z,77221.25
2023-03-06T15:22:39.233Z,77213.34
2023-03-06T15:24:33.211Z,77211.38
2023-03-06T15:26:37.212Z,77219.28
2023-03-06T15:28:28.970Z,77225.22
2023-03-06T15:30:32.983Z,77233.13
2023-03-06T15:32:27.406Z,77229.16
2023-03-06T15:34:04.279Z,77266.75
2023-03-06T15:35:38.473Z,77264.75
2023-03-06T15:37:27.958Z,77272.69
2023-03-06T15:39:01.351Z,77272.69
2023-03-06T15:40:34.682Z,77274.66
2023-03-06T15:42:21.135Z,77262.78
2023-03-06T15:43:54.371Z,77270.69
2023-03-06T15:45:29.769Z,77278.59
2023-03-06T15:47:08.642Z,77278.59
2023-03-06T15:48:53.305Z,77276.63
2023-03-06T15:50:29.134Z,77280.59
2023-03-06T15:52:02.373Z,77328.06
2023-03-06T15:53:35.212Z,77286.53
2023-03-06T15:55:09.379Z,77288.50
2023-03-06T15:56:47.659Z,77284.53
2023-03-06T15:58:24.969Z,77306.28
2023-03-06T16:00:00.170Z,77296.41
2023-03-06T16:01:36.066Z,77310.25
2023-03-06T16:03:11.616Z,77288.50
2023-03-06T16:04:45.181Z,77355.75
2023-03-06T16:06:23.837Z,77314.22
2023-03-06T16:07:57.485Z,77308.28
2023-03-06T16:09:30.394Z,77300.38
2023-03-06T16:11:03.962Z,77298.38
2023-03-06T16:12:37.281Z,77296.41
2023-03-06T16:14:20.509Z,77292.44
2023-03-06T16:15:54.506Z,77302.34
2023-03-06T16:17:27.549Z,77302.34
2023-03-06T16:19:01.364Z,77355.75
2023-03-06T16:20:34.703Z,77328.06
2023-03-06T16:22:07.969Z,77343.88
2023-03-06T16:23:41.568Z,77407.16
2023-03-06T16:25:16.694Z,77351.78
2023-03-06T16:26:52.221Z,77367.59
2023-03-06T16:28:27.259Z,77383.44
2023-03-06T16:30:00.239Z,77428.91
2023-03-06T16:31:33.473Z,77393.31
2023-03-06T16:33:07.003Z,77385.41
2023-03-06T16:34:40.118Z,77387.38
2023-03-06T16:36:24.198Z,77395.28
2023-03-06T16:37:59.211Z,77387.38
2023-03-06T16:39:32.701Z,77395.28
2023-03-06T16:41:06.039Z,77395.28
2023-03-06T16:42:38.808Z,77405.19
2023-03-06T16:44:12.652Z,77415.06
2023-03-06T16:45:46.155Z,77409.13
2023-03-06T16:47:21.466Z,77403.22
2023-03-06T16:48:55.802Z,77403.22
2023-03-06T16:50:38.067Z,77383.44
2023-03-06T16:52:12.166Z,77401.22
2023-03-06T16:53:46.240Z,77399.25
2023-03-06T16:55:19.702Z,77411.13
2023-03-06T16:56:52.848Z,77423.00
2023-03-06T16:58:26.194Z,77411.13
2023-03-06T16:59:59.372Z,77421.00
2023-03-06T17:01:32.542Z,77417.06
2023-03-06T17:03:05.588Z,77421.00
2023-03-06T17:04:38.969Z,77423.00
2023-03-06T17:06:17.317Z,77411.13
2023-03-06T17:07:50.826Z,77426.94
2023-03-06T17:09:24.037Z,77474.41
2023-03-06T17:10:57.549Z,77430.91
2023-03-06T17:12:30.892Z,77430.91
2023-03-06T17:14:04.179Z,77454.63
2023-03-06T17:15:37.575Z,77452.66
2023-03-06T17:17:11.082Z,77470.47
2023-03-06T17:18:46.028Z,77419.03
2023-03-06T17:20:20.530Z,77519.91
2023-03-06T17:21:53.630Z,77423.00
2023-03-06T17:23:30.176Z,77419.03
2023-03-06T17:25:07.166Z,77419.03
2023-03-06T17:26:40.590Z,77423.00
2023-03-06T17:28:14.266Z,77474.41
2023-03-06T17:29:50.710Z,77423.00
2023-03-06T17:31:27.180Z,77421.00
2023-03-06T17:33:01.110Z,77434.84
2023-03-06T17:34:34.726Z,77442.75
2023-03-06T17:36:08.674Z,77444.75
2023-03-06T17:37:41.986Z,77446.72
2023-03-06T17:39:16.474Z,77452.66
2023-03-06T17:40:49.706Z,77454.63
2023-03-06T17:42:23.320Z,77452.66
2023-03-06T17:43:58.219Z,77446.72
2023-03-06T17:45:34.037Z,77462.53
2023-03-06T17:47:07.634Z,77454.63
2023-03-06T17:48:41.643Z,77458.59
2023-03-06T17:50:14.774Z,77462.53
2023-03-06T17:51:52.118Z,77450.69
2023-03-06T17:53:27.799Z,77452.66
2023-03-06T17:55:01.590Z,77446.72
2023-03-06T17:56:34.992Z,77450.69
2023-03-06T17:58:10.805Z,77460.56
2023-03-06T17:59:48.849Z,77466.50
2023-03-06T18:01:25.239Z,77466.50
2023-03-06T18:02:58.376Z,77476.38
2023-03-06T18:04:31.612Z,77490.22
2023-03-06T18:06:05.792Z,77498.16
2023-03-06T18:07:39.606Z,77517.91
2023-03-06T18:09:13.643Z,77527.81
2023-03-06T18:10:47.964Z,77531.75
2023-03-06T18:12:21.140Z,77537.69
2023-03-06T18:13:54.685Z,77545.63
2023-03-06T18:15:27.985Z,77547.59
2023-03-06T18:17:01.391Z,77553.53
2023-03-06T18:18:35.523Z,77551.53
2023-03-06T18:20:12.791Z,77541.66
2023-03-06T18:21:47.772Z,77547.59
2023-03-06T18:23:21.134Z,77547.59
2023-03-06T18:24:54.196Z,77559.47
2023-03-06T18:26:29.215Z,77541.66
2023-03-06T18:28:02.260Z,77571.31
2023-03-06T18:29:39.306Z,77561.44
2023-03-06T18:31:20.386Z,77543.63
2023-03-06T18:32:54.614Z,77553.53
2023-03-06T18:34:28.129Z,77541.66
2023-03-06T18:36:07.685Z,77537.69
2023-03-06T18:37:41.696Z,77545.63
2023-03-06T18:39:20.264Z,77549.56
2023-03-06T18:40:56.959Z,77551.53
2023-03-06T18:42:30.355Z,77549.56
2023-03-06T18:44:04.090Z,77553.53
2023-03-06T18:45:37.743Z,77561.44
2023-03-06T18:47:10.872Z,77547.59
2023-03-06T18:48:43.770Z,77565.38
2023-03-06T18:50:17.808Z,77557.47
2023-03-06T18:51:51.620Z,77549.56
2023-03-06T18:53:24.723Z,77553.53
2023-03-06T18:54:57.657Z,77561.44
2023-03-06T18:56:31.187Z,77545.63
2023-03-06T18:58:04.644Z,77545.63
2023-03-06T18:59:38.172Z,77537.69
2023-03-06T19:01:11.962Z,77541.66
2023-03-06T19:02:44.984Z,77549.56
2023-03-06T19:04:19.432Z,77541.66
2023-03-06T19:05:52.848Z,77543.63
2023-03-06T19:07:26.361Z,77620.78
2023-03-06T19:08:59.775Z,77549.56
2023-03-06T19:10:36.221Z,77533.75
2023-03-06T19:12:09.864Z,77541.66